createdAt,value
2016-05-24T00:00:08.482Z,11.94
2016-05-24T00:00:18.482Z,11.99
2016-05-24T00:00:28.482Z,11.99
2016-05-24T00:00:38.482Z,12.01
2016-05-24T00:00:48.498Z,12.04
2016-05-24T00:00:58.498Z,11.96
2016-05-24T00:01:08.359Z,11.99
2016-05-24T00:01:18.578Z,11.95
2016-05-24T00:01:28.375Z,11.95
2016-05-24T00:01:38.359Z,11.94
2016-05-24T00:01:48.922Z,11.91
2016-05-24T00:01:59.250Z,11.94
2016-05-24T00:02:08.941Z,11.95
2016-05-24T00:02:19.129Z,11.99
2016-05-24T00:02:28.551Z,11.99
2016-05-24T00:02:38.551Z,12.01
2016-05-24T00:02:48.629Z,12.05
2016-05-24T00:02:58.566Z,11.99
2016-05-24T00:03:08.599Z,11.96
2016-05-24T00:03:18.428Z,11.99
2016-05-24T00:03:28.584Z,12.09
2016-05-24T00:03:38.584Z,12.01
2016-05-24T00:03:48.584Z,12.04
2016-05-24T00:03:58.584Z,11.98
2016-05-24T00:04:08.602Z,11.99
2016-05-24T00:04:18.602Z,12.01
2016-05-24T00:04:28.602Z,11.99
2016-05-24T00:04:38.618Z,12.02
2016-05-24T00:04:48.618Z,12.02
2016-05-24T00:04:58.618Z,12.04
2016-05-24T00:05:08.636Z,12.01
2016-05-24T00:05:18.636Z,12.01
2016-05-24T00:05:28.636Z,12.07
2016-05-24T00:05:38.636Z,11.99
2016-05-24T00:05:48.651Z,11.99
2016-05-24T00:05:58.651Z,12.1
2016-05-24T00:06:08.654Z,11.99
2016-05-24T00:06:18.654Z,12.05
2016-05-24T00:06:28.670Z,11.96
2016-05-24T00:06:38.670Z,12.05
2016-05-24T00:06:48.686Z,12.09
2016-05-24T00:06:58.873Z,12.07
2016-05-24T00:07:08.688Z,12.01
2016-05-24T00:07:18.703Z,12.05
2016-05-24T00:07:28.719Z,12.05
2016-05-24T00:07:38.719Z,12.09
2016-05-24T00:07:48.703Z,12.09
2016-05-24T00:07:58.703Z,12.09
2016-05-24T00:08:08.722Z,11.99
2016-05-24T00:08:18.722Z,11.96
2016-05-24T00:08:28.737Z,12.04
2016-05-24T00:08:38.737Z,12.01
2016-05-24T00:08:48.737Z,12.02
2016-05-24T00:08:58.878Z,11.99
2016-05-24T00:09:08.600Z,11.98
2016-05-24T00:09:18.600Z,11.95
2016-05-24T00:09:28.772Z,11.96
2016-05-24T00:09:38.756Z,12.07
2016-05-24T00:09:48.787Z,11.99
2016-05-24T00:09:58.772Z,11.99
2016-05-24T00:10:08.775Z,11.99
2016-05-24T00:10:18.790Z,11.94
2016-05-24T00:10:28.790Z,12.02
2016-05-24T00:10:38.790Z,12.02
2016-05-24T00:10:48.790Z,12.07
2016-05-24T00:10:58.806Z,12.02
2016-05-24T00:11:08.824Z,12.07
2016-05-24T00:11:18.808Z,12.02
2016-05-24T00:11:28.824Z,12.02
2016-05-24T00:11:38.824Z,12.02
2016-05-24T00:11:48.839Z,12.01
2016-05-24T00:11:58.667Z,12.01
2016-05-24T00:12:08.842Z,12.02
2016-05-24T00:12:18.842Z,12.04
2016-05-24T00:12:28.858Z,11.99
2016-05-24T00:12:38.858Z,12.02
2016-05-24T00:12:48.858Z,12.04
2016-05-24T00:12:58.717Z,12.02
2016-05-24T00:13:08.876Z,11.98
2016-05-24T00:13:18.876Z,12.01
2016-05-24T00:13:28.876Z,11.99
2016-05-24T00:13:38.876Z,11.99
2016-05-24T00:13:48.892Z,12.02
2016-05-24T00:13:58.892Z,12.04
2016-05-24T00:14:08.894Z,12.02
2016-05-24T00:14:18.910Z,11.98
2016-05-24T00:14:29.363Z,12.05
2016-05-24T00:14:39.082Z,12.13
2016-05-24T00:14:49.003Z,11.95
2016-05-24T00:14:58.910Z,11.96
2016-05-24T00:15:08.772Z,11.91
2016-05-24T00:15:18.944Z,12.02
2016-05-24T00:15:28.928Z,11.98
2016-05-24T00:15:38.944Z,11.99
2016-05-24T00:15:48.944Z,11.99
2016-05-24T00:15:58.960Z,11.95
2016-05-24T00:16:08.963Z,12.01
2016-05-24T00:16:18.978Z,11.99
2016-05-24T00:16:28.978Z,11.91
2016-05-24T00:16:38.978Z,11.94
2016-05-24T00:16:48.978Z,11.99
2016-05-24T00:16:58.978Z,11.98
2016-05-24T00:17:08.997Z,12.04
2016-05-24T00:17:18.997Z,11.99
2016-05-24T00:17:28.997Z,11.91
2016-05-24T00:17:38.997Z,11.94
2016-05-24T00:17:49.012Z,11.98
2016-05-24T00:17:58.856Z,11.96
2016-05-24T00:18:09.014Z,12.02
2016-05-24T00:18:19.030Z,12.01
2016-05-24T00:18:28.874Z,11.96
2016-05-24T00:18:38.874Z,11.96
2016-05-24T00:18:49.030Z,11.99
2016-05-24T00:18:59.046Z,12.05
2016-05-24T00:19:09.049Z,12.01
2016-05-24T00:19:19.064Z,12.07
2016-05-24T00:19:29.064Z,12.04
2016-05-24T00:19:38.908Z,11.96
2016-05-24T00:19:49.064Z,11.98
2016-05-24T00:19:59.064Z,12.05
2016-05-24T00:20:09.067Z,11.95
2016-05-24T00:20:19.083Z,12.04
2016-05-24T00:20:29.099Z,11.99
2016-05-24T00:20:39.099Z,12.02
2016-05-24T00:20:48.942Z,12.05
2016-05-24T00:20:59.099Z,12.04
2016-05-24T00:21:09.117Z,11.98
2016-05-24T00:21:19.117Z,11.95
2016-05-24T00:21:28.961Z,12.05
2016-05-24T00:21:39.148Z,12.01
2016-05-24T00:21:49.133Z,12.01
2016-05-24T00:21:59.133Z,11.99
2016-05-24T00:22:09.135Z,12.04
2016-05-24T00:22:19.135Z,12.01
2016-05-24T00:22:29.150Z,11.98
2016-05-24T00:22:39.150Z,11.96
2016-05-24T00:22:49.150Z,12.04
2016-05-24T00:22:59.150Z,11.96
2016-05-24T00:23:09.185Z,11.98
2016-05-24T00:23:19.185Z,11.96
2016-05-24T00:23:29.169Z,11.96
2016-05-24T00:23:39.028Z,11.96
2016-05-24T00:23:49.185Z,11.95
2016-05-24T00:23:59.200Z,11.94
2016-05-24T00:24:09.202Z,11.95
2016-05-24T00:24:19.046Z,11.99
2016-05-24T00:24:29.202Z,11.96
2016-05-24T00:24:39.218Z,11.86
2016-05-24T00:24:49.062Z,11.98
2016-05-24T00:24:59.218Z,12.01
2016-05-24T00:25:09.221Z,11.96
2016-05-24T00:25:19.252Z,11.94
2016-05-24T00:25:29.237Z,11.91
2016-05-24T00:25:39.237Z,11.99
2016-05-24T00:25:49.112Z,11.99
2016-05-24T00:25:59.252Z,11.95
2016-05-24T00:26:09.254Z,11.99
2016-05-24T00:26:19.114Z,12.05
2016-05-24T00:26:29.270Z,12.04
2016-05-24T00:26:39.270Z,11.99
2016-05-24T00:26:49.285Z,12.01
2016-05-24T00:26:59.129Z,11.99
2016-05-24T00:27:09.289Z,12.09
2016-05-24T00:27:19.289Z,12.05
2016-05-24T00:27:29.149Z,12.09
2016-05-24T00:27:39.133Z,12.02
2016-05-24T00:27:49.305Z,12.04
2016-05-24T00:27:59.305Z,12.01
2016-05-24T00:28:09.323Z,11.96
2016-05-24T00:28:19.323Z,11.99
2016-05-24T00:28:29.323Z,11.96
2016-05-24T00:28:39.338Z,12.01
2016-05-24T00:28:49.323Z,11.99
2016-05-24T00:28:59.338Z,11.96
2016-05-24T00:29:09.341Z,12.02
2016-05-24T00:29:19.357Z,11.94
2016-05-24T00:29:29.357Z,11.96
2016-05-24T00:29:39.748Z,11.9
2016-05-24T00:29:49.560Z,11.95
2016-05-24T00:29:59.373Z,11.99
2016-05-24T00:30:09.390Z,11.99
2016-05-24T00:30:19.375Z,11.95
2016-05-24T00:30:29.390Z,11.98
2016-05-24T00:30:39.390Z,11.95
2016-05-24T00:30:49.390Z,11.91
2016-05-24T00:30:59.406Z,11.91
2016-05-24T00:31:09.254Z,12.02
2016-05-24T00:31:19.410Z,11.95
2016-05-24T00:31:29.269Z,11.9
2016-05-24T00:31:39.269Z,11.86
2016-05-24T00:31:49.425Z,11.86
2016-05-24T00:31:59.425Z,11.94
2016-05-24T00:32:09.443Z,11.94
2016-05-24T00:32:19.443Z,11.86
2016-05-24T00:32:29.443Z,11.95
2016-05-24T00:32:39.302Z,11.95
2016-05-24T00:32:49.459Z,11.96
2016-05-24T00:32:59.459Z,12.04
2016-05-24T00:33:09.477Z,11.91
2016-05-24T00:33:19.477Z,11.95
2016-05-24T00:33:29.477Z,11.9
2016-05-24T00:33:39.477Z,11.96
2016-05-24T00:33:49.493Z,11.9
2016-05-24T00:33:59.493Z,11.91
2016-05-24T00:34:09.495Z,11.96
2016-05-24T00:34:19.511Z,11.85
2016-05-24T00:34:29.354Z,11.98
2016-05-24T00:34:39.354Z,11.86
2016-05-24T00:34:49.511Z,11.96
2016-05-24T00:34:59.511Z,11.98
2016-05-24T00:35:09.529Z,11.91
2016-05-24T00:35:19.529Z,11.96
2016-05-24T00:35:29.529Z,11.9
2016-05-24T00:35:39.545Z,11.96
2016-05-24T00:35:49.545Z,11.96
2016-05-24T00:35:59.545Z,11.94
2016-05-24T00:36:09.562Z,11.99
2016-05-24T00:36:19.562Z,11.96
2016-05-24T00:36:29.562Z,11.95
2016-05-24T00:36:39.578Z,11.94
2016-05-24T00:36:49.578Z,11.9
2016-05-24T00:36:59.594Z,11.94
2016-05-24T00:37:09.581Z,11.94
2016-05-24T00:37:19.597Z,11.9
2016-05-24T00:37:29.597Z,11.91
2016-05-24T00:37:39.597Z,11.91
2016-05-24T00:37:49.612Z,11.96
2016-05-24T00:37:59.612Z,11.85
2016-05-24T00:38:09.631Z,12.01
2016-05-24T00:38:19.615Z,11.86
2016-05-24T00:38:29.631Z,11.95
2016-05-24T00:38:39.631Z,11.96
2016-05-24T00:38:49.631Z,11.85
2016-05-24T00:38:59.631Z,11.85
2016-05-24T00:39:09.650Z,11.85
2016-05-24T00:39:19.665Z,11.85
2016-05-24T00:39:29.650Z,12.01
2016-05-24T00:39:39.509Z,11.95
2016-05-24T00:39:49.665Z,11.86
2016-05-24T00:39:59.665Z,11.83
2016-05-24T00:40:09.684Z,11.95
2016-05-24T00:40:19.684Z,11.83
2016-05-24T00:40:29.684Z,11.95
2016-05-24T00:40:39.684Z,11.82
2016-05-24T00:40:49.684Z,11.9
2016-05-24T00:40:59.699Z,11.94
2016-05-24T00:41:09.717Z,11.94
2016-05-24T00:41:19.561Z,11.94
2016-05-24T00:41:29.717Z,11.95
2016-05-24T00:41:39.561Z,11.85
2016-05-24T00:41:49.717Z,11.76
2016-05-24T00:41:59.576Z,11.91
2016-05-24T00:42:09.579Z,11.96
2016-05-24T00:42:19.736Z,11.8
2016-05-24T00:42:29.751Z,11.82
2016-05-24T00:42:39.751Z,11.95
2016-05-24T00:42:49.751Z,11.91
2016-05-24T00:42:59.751Z,11.88
2016-05-24T00:43:09.769Z,11.88
2016-05-24T00:43:19.769Z,11.96
2016-05-24T00:43:29.628Z,11.85
2016-05-24T00:43:39.785Z,11.85
2016-05-24T00:43:49.785Z,11.88
2016-05-24T00:43:59.628Z,11.79
2016-05-24T00:44:09.803Z,11.79
2016-05-24T00:44:19.959Z,11.82
2016-05-24T00:44:29.819Z,11.82
2016-05-24T00:44:39.819Z,11.79
2016-05-24T00:44:49.819Z,11.83
2016-05-24T00:44:59.866Z,11.95
2016-05-24T00:45:10.087Z,11.83
2016-05-24T00:45:19.837Z,11.79
2016-05-24T00:45:29.837Z,11.86
2016-05-24T00:45:39.853Z,11.82
2016-05-24T00:45:49.837Z,11.79
2016-05-24T00:45:59.853Z,11.82
2016-05-24T00:46:09.700Z,11.91
2016-05-24T00:46:19.856Z,11.86
2016-05-24T00:46:29.872Z,11.88
2016-05-24T00:46:39.872Z,11.86
2016-05-24T00:46:49.872Z,11.83
2016-05-24T00:46:59.887Z,11.82
2016-05-24T00:47:09.889Z,11.83
2016-05-24T00:47:19.889Z,11.78
2016-05-24T00:47:29.905Z,11.85
2016-05-24T00:47:39.905Z,11.79
2016-05-24T00:47:49.921Z,11.79
2016-05-24T00:47:59.905Z,11.82
2016-05-24T00:48:09.924Z,11.88
2016-05-24T00:48:19.939Z,11.85
2016-05-24T00:48:29.924Z,11.83
2016-05-24T00:48:39.924Z,11.91
2016-05-24T00:48:49.924Z,11.86
2016-05-24T00:48:59.939Z,11.94
2016-05-24T00:49:09.786Z,11.94
2016-05-24T00:49:19.958Z,11.83
2016-05-24T00:49:29.958Z,11.85
2016-05-24T00:49:39.817Z,11.76
2016-05-24T00:49:49.973Z,11.8
2016-05-24T00:49:59.973Z,11.79
2016-05-24T00:50:09.976Z,11.79
2016-05-24T00:50:19.976Z,11.8
2016-05-24T00:50:29.976Z,11.82
2016-05-24T00:50:39.992Z,11.78
2016-05-24T00:50:49.992Z,11.82
2016-05-24T00:51:00.008Z,11.83
2016-05-24T00:51:10.010Z,11.9
2016-05-24T00:51:20.010Z,11.88
2016-05-24T00:51:30.025Z,11.95
2016-05-24T00:51:40.025Z,11.83
2016-05-24T00:51:50.025Z,11.91
2016-05-24T00:52:00.025Z,11.8
2016-05-24T00:52:10.044Z,11.85
2016-05-24T00:52:20.044Z,11.98
2016-05-24T00:52:30.044Z,11.94
2016-05-24T00:52:40.060Z,11.88
2016-05-24T00:52:50.060Z,11.91
2016-05-24T00:53:00.060Z,11.95
2016-05-24T00:53:10.077Z,11.91
2016-05-24T00:53:20.077Z,11.94
2016-05-24T00:53:30.077Z,11.91
2016-05-24T00:53:39.921Z,11.88
2016-05-24T00:53:49.937Z,11.83
2016-05-24T00:54:00.077Z,11.83
2016-05-24T00:54:10.096Z,11.83
2016-05-24T00:54:20.096Z,11.86
2016-05-24T00:54:30.096Z,11.82
2016-05-24T00:54:40.111Z,11.9
2016-05-24T00:54:50.111Z,11.83
2016-05-24T00:55:00.111Z,11.88
2016-05-24T00:55:10.130Z,11.85
2016-05-24T00:55:20.146Z,11.9
2016-05-24T00:55:30.130Z,11.82
2016-05-24T00:55:40.146Z,11.8
2016-05-24T00:55:50.146Z,11.9
2016-05-24T00:56:00.177Z,11.85
2016-05-24T00:56:10.164Z,11.85
2016-05-24T00:56:20.180Z,11.83
2016-05-24T00:56:30.164Z,11.83
2016-05-24T00:56:40.180Z,11.83
2016-05-24T00:56:50.180Z,11.83
2016-05-24T00:57:00.180Z,11.79
2016-05-24T00:57:10.182Z,11.85
2016-05-24T00:57:20.198Z,11.79
2016-05-24T00:57:30.213Z,11.85
2016-05-24T00:57:40.198Z,11.8
2016-05-24T00:57:50.198Z,11.75
2016-05-24T00:58:00.198Z,11.83
2016-05-24T00:58:10.216Z,11.86
2016-05-24T00:58:20.232Z,11.8
2016-05-24T00:58:30.232Z,11.8
2016-05-24T00:58:40.247Z,11.86
2016-05-24T00:58:50.232Z,11.79
2016-05-24T00:59:00.247Z,11.85
2016-05-24T00:59:10.249Z,11.82
2016-05-24T00:59:20.249Z,11.8
2016-05-24T00:59:30.249Z,11.85
2016-05-24T00:59:40.265Z,11.83
2016-05-24T00:59:50.265Z,11.8
2016-05-24T01:00:00.281Z,11.85
2016-05-24T01:00:10.138Z,11.82
2016-05-24T01:00:20.529Z,11.76
2016-05-24T01:00:30.295Z,11.79
2016-05-24T01:00:40.295Z,11.8
2016-05-24T01:00:50.310Z,11.78
2016-05-24T01:01:00.310Z,11.83
2016-05-24T01:01:10.341Z,11.72
2016-05-24T01:01:20.341Z,11.79
2016-05-24T01:01:30.357Z,11.83
2016-05-24T01:01:40.357Z,11.85
2016-05-24T01:01:50.357Z,11.78
2016-05-24T01:02:00.357Z,11.82
2016-05-24T01:02:10.404Z,11.85
2016-05-24T01:02:20.419Z,11.83
2016-05-24T01:02:30.404Z,11.85
2016-05-24T01:02:40.419Z,11.83
2016-05-24T01:02:50.419Z,11.85
2016-05-24T01:03:00.435Z,11.8
2016-05-24T01:03:10.451Z,11.85
2016-05-24T01:03:20.467Z,11.82
2016-05-24T01:03:30.467Z,11.83
2016-05-24T01:03:40.482Z,11.83
2016-05-24T01:03:50.326Z,11.86
2016-05-24T01:04:00.482Z,11.85
2016-05-24T01:04:10.528Z,11.78
2016-05-24T01:04:20.528Z,11.82
2016-05-24T01:04:30.528Z,11.85
2016-05-24T01:04:40.528Z,11.8
2016-05-24T01:04:50.528Z,11.86
2016-05-24T01:05:00.544Z,11.83
2016-05-24T01:05:10.568Z,11.83
2016-05-24T01:05:20.568Z,11.83
2016-05-24T01:05:30.583Z,11.85
2016-05-24T01:05:40.583Z,11.86
2016-05-24T01:05:50.599Z,11.82
2016-05-24T01:06:00.599Z,11.82
2016-05-24T01:06:10.612Z,11.76
2016-05-24T01:06:20.456Z,11.78
2016-05-24T01:06:30.628Z,11.76
2016-05-24T01:06:40.628Z,11.72
2016-05-24T01:06:50.628Z,11.78
2016-05-24T01:07:00.628Z,11.78
2016-05-24T01:07:10.655Z,11.78
2016-05-24T01:07:20.655Z,11.83
2016-05-24T01:07:30.655Z,11.78
2016-05-24T01:07:40.515Z,11.83
2016-05-24T01:07:50.671Z,11.83
2016-05-24T01:08:00.515Z,11.85
2016-05-24T01:08:10.685Z,11.8
2016-05-24T01:08:20.700Z,11.8
2016-05-24T01:08:30.700Z,11.86
2016-05-24T01:08:40.700Z,11.79
2016-05-24T01:08:50.716Z,11.79
2016-05-24T01:09:00.716Z,11.83
2016-05-24T01:09:10.729Z,11.82
2016-05-24T01:09:20.745Z,11.78
2016-05-24T01:09:30.745Z,11.75
2016-05-24T01:09:40.745Z,11.78
2016-05-24T01:09:50.745Z,11.78
2016-05-24T01:10:00.760Z,11.78
2016-05-24T01:10:10.770Z,11.75
2016-05-24T01:10:20.770Z,11.78
2016-05-24T01:10:30.786Z,11.72
2016-05-24T01:10:40.786Z,11.8
2016-05-24T01:10:50.786Z,11.78
2016-05-24T01:11:00.786Z,11.78
2016-05-24T01:11:10.792Z,11.76
2016-05-24T01:11:20.808Z,11.8
2016-05-24T01:11:30.808Z,11.72
2016-05-24T01:11:40.808Z,11.73
2016-05-24T01:11:50.823Z,11.78
2016-05-24T01:12:00.823Z,11.78
2016-05-24T01:12:10.830Z,11.76
2016-05-24T01:12:20.830Z,11.72
2016-05-24T01:12:30.690Z,11.78
2016-05-24T01:12:40.846Z,11.78
2016-05-24T01:12:50.861Z,11.73
2016-05-24T01:13:00.861Z,11.78
2016-05-24T01:13:10.867Z,11.76
2016-05-24T01:13:20.867Z,11.76
2016-05-24T01:13:30.883Z,11.73
2016-05-24T01:13:40.727Z,11.75
2016-05-24T01:13:50.883Z,11.73
2016-05-24T01:14:00.883Z,11.73
2016-05-24T01:14:10.906Z,11.73
2016-05-24T01:14:20.765Z,11.78
2016-05-24T01:14:31.015Z,11.73
2016-05-24T01:14:40.765Z,11.75
2016-05-24T01:14:50.765Z,11.75
2016-05-24T01:15:00.937Z,11.7
2016-05-24T01:15:11.365Z,11.69
2016-05-24T01:15:20.943Z,11.73
2016-05-24T01:15:30.787Z,11.7
2016-05-24T01:15:40.943Z,11.72
2016-05-24T01:15:50.959Z,11.7
2016-05-24T01:16:00.802Z,11.72
2016-05-24T01:16:10.977Z,11.73
2016-05-24T01:16:20.977Z,11.76
2016-05-24T01:16:30.977Z,11.76
2016-05-24T01:16:40.821Z,11.76
2016-05-24T01:16:50.977Z,11.76
2016-05-24T01:17:00.993Z,11.67
2016-05-24T01:17:10.997Z,11.8
2016-05-24T01:17:20.997Z,11.78
2016-05-24T01:17:30.856Z,11.79
2016-05-24T01:17:41.012Z,11.76
2016-05-24T01:17:51.012Z,11.73
2016-05-24T01:18:01.012Z,11.83
2016-05-24T01:18:11.048Z,11.82
2016-05-24T01:18:20.876Z,11.8
2016-05-24T01:18:30.876Z,11.79
2016-05-24T01:18:41.048Z,11.78
2016-05-24T01:18:51.063Z,11.83
2016-05-24T01:19:01.048Z,11.7
2016-05-24T01:19:11.066Z,11.73
2016-05-24T01:19:21.066Z,11.78
2016-05-24T01:19:31.066Z,11.76
2016-05-24T01:19:41.066Z,11.86
2016-05-24T01:19:51.082Z,11.82
2016-05-24T01:20:01.082Z,11.85
2016-05-24T01:20:11.086Z,11.76
2016-05-24T01:20:20.945Z,11.85
2016-05-24T01:20:31.102Z,11.82
2016-05-24T01:20:41.102Z,11.83
2016-05-24T01:20:51.102Z,11.86
2016-05-24T01:21:01.117Z,11.82
2016-05-24T01:21:11.121Z,11.88
2016-05-24T01:21:21.121Z,11.82
2016-05-24T01:21:30.965Z,11.88
2016-05-24T01:21:41.137Z,11.83
2016-05-24T01:21:51.152Z,11.8
2016-05-24T01:22:01.137Z,11.9
2016-05-24T01:22:11.154Z,11.86
2016-05-24T01:22:20.998Z,11.8
2016-05-24T01:22:31.154Z,11.91
2016-05-24T01:22:41.154Z,11.83
2016-05-24T01:22:51.170Z,11.8
2016-05-24T01:23:01.170Z,11.85
2016-05-24T01:23:11.174Z,11.8
2016-05-24T01:23:21.033Z,11.95
2016-05-24T01:23:31.190Z,11.88
2016-05-24T01:23:41.033Z,11.9
2016-05-24T01:23:51.190Z,11.85
2016-05-24T01:24:01.205Z,11.8
2016-05-24T01:24:11.207Z,11.78
2016-05-24T01:24:21.207Z,11.86
2016-05-24T01:24:31.223Z,11.83
2016-05-24T01:24:41.067Z,11.86
2016-05-24T01:24:51.254Z,11.82
2016-05-24T01:25:01.239Z,11.86
2016-05-24T01:25:11.243Z,11.76
2016-05-24T01:25:21.243Z,11.85
2016-05-24T01:25:31.258Z,11.83
2016-05-24T01:25:41.258Z,11.85
2016-05-24T01:25:51.102Z,11.9
2016-05-24T01:26:01.258Z,11.8
2016-05-24T01:26:11.276Z,11.79
2016-05-24T01:26:21.120Z,11.78
2016-05-24T01:26:31.276Z,11.76
2016-05-24T01:26:41.276Z,11.82
2016-05-24T01:26:51.291Z,11.82
2016-05-24T01:27:01.291Z,11.8
2016-05-24T01:27:11.295Z,11.78
2016-05-24T01:27:21.311Z,11.73
2016-05-24T01:27:31.311Z,11.78
2016-05-24T01:27:41.311Z,11.7
2016-05-24T01:27:51.311Z,11.82
2016-05-24T01:28:01.327Z,11.83
2016-05-24T01:28:11.329Z,11.73
2016-05-24T01:28:21.329Z,11.76
2016-05-24T01:28:31.344Z,11.78
2016-05-24T01:28:41.344Z,11.72
2016-05-24T01:28:51.344Z,11.73
2016-05-24T01:29:01.344Z,11.65
2016-05-24T01:29:11.364Z,11.78
2016-05-24T01:29:22.223Z,11.73
2016-05-24T01:29:31.473Z,11.75
2016-05-24T01:29:41.505Z,11.78
2016-05-24T01:29:51.926Z,11.72
2016-05-24T01:30:01.411Z,11.76
2016-05-24T01:30:11.241Z,11.76
2016-05-24T01:30:21.397Z,11.78
2016-05-24T01:30:31.397Z,11.8
2016-05-24T01:30:41.413Z,11.73
2016-05-24T01:30:51.241Z,11.76
2016-05-24T01:31:01.413Z,11.72
2016-05-24T01:31:11.432Z,11.79
2016-05-24T01:31:21.432Z,11.76
2016-05-24T01:31:31.432Z,11.78
2016-05-24T01:31:41.276Z,11.78
2016-05-24T01:31:51.448Z,11.78
2016-05-24T01:32:01.448Z,11.78
2016-05-24T01:32:11.451Z,11.8
2016-05-24T01:32:21.451Z,11.86
2016-05-24T01:32:31.467Z,11.8
2016-05-24T01:32:41.467Z,11.83
2016-05-24T01:32:51.482Z,11.85
2016-05-24T01:33:01.482Z,11.82
2016-05-24T01:33:11.469Z,11.78
2016-05-24T01:33:21.328Z,11.76
2016-05-24T01:33:31.344Z,11.82
2016-05-24T01:33:41.500Z,11.82
2016-05-24T01:33:51.500Z,11.8
2016-05-24T01:34:01.500Z,11.8
2016-05-24T01:34:11.518Z,11.82
2016-05-24T01:34:21.518Z,11.82
2016-05-24T01:34:31.518Z,11.85
2016-05-24T01:34:41.533Z,11.79
2016-05-24T01:34:51.533Z,11.8
2016-05-24T01:35:01.533Z,11.83
2016-05-24T01:35:11.536Z,11.85
2016-05-24T01:35:21.552Z,11.78
2016-05-24T01:35:31.552Z,11.8
2016-05-24T01:35:41.552Z,11.76
2016-05-24T01:35:51.552Z,11.73
2016-05-24T01:36:01.567Z,11.78
2016-05-24T01:36:11.569Z,11.79
2016-05-24T01:36:21.585Z,11.76
2016-05-24T01:36:31.585Z,11.75
2016-05-24T01:36:41.585Z,11.76
2016-05-24T01:36:51.585Z,11.73
2016-05-24T01:37:01.585Z,11.75
2016-05-24T01:37:11.589Z,11.73
2016-05-24T01:37:21.605Z,11.72
2016-05-24T01:37:31.605Z,11.69
2016-05-24T01:37:41.620Z,11.72
2016-05-24T01:37:51.620Z,11.75
2016-05-24T01:38:01.620Z,11.73
2016-05-24T01:38:11.639Z,11.72
2016-05-24T01:38:21.639Z,11.72
2016-05-24T01:38:31.639Z,11.73
2016-05-24T01:38:41.639Z,11.75
2016-05-24T01:38:51.498Z,11.76
2016-05-24T01:39:01.655Z,11.72
2016-05-24T01:39:11.657Z,11.72
2016-05-24T01:39:21.672Z,11.75
2016-05-24T01:39:31.672Z,11.69
2016-05-24T01:39:41.672Z,11.72
2016-05-24T01:39:51.688Z,11.7
2016-05-24T01:40:01.688Z,11.72
2016-05-24T01:40:11.691Z,11.73
2016-05-24T01:40:21.535Z,11.69
2016-05-24T01:40:31.722Z,11.65
2016-05-24T01:40:41.706Z,11.69
2016-05-24T01:40:51.706Z,11.65
2016-05-24T01:41:01.722Z,11.73
2016-05-24T01:41:11.724Z,11.69
2016-05-24T01:41:21.724Z,11.69
2016-05-24T01:41:31.724Z,11.76
2016-05-24T01:41:41.740Z,11.75
2016-05-24T01:41:51.740Z,11.67
2016-05-24T01:42:01.755Z,11.65
2016-05-24T01:42:11.743Z,11.69
2016-05-24T01:42:21.758Z,11.7
2016-05-24T01:42:31.758Z,11.75
2016-05-24T01:42:41.758Z,11.7
2016-05-24T01:42:51.758Z,11.73
2016-05-24T01:43:01.774Z,11.67
2016-05-24T01:43:11.776Z,11.69
2016-05-24T01:43:21.776Z,11.65
2016-05-24T01:43:31.776Z,11.76
2016-05-24T01:43:41.792Z,11.75
2016-05-24T01:43:51.792Z,11.73
2016-05-24T01:44:01.807Z,11.75
2016-05-24T01:44:11.811Z,11.7
2016-05-24T01:44:21.999Z,11.7
2016-05-24T01:44:31.967Z,11.72
2016-05-24T01:44:41.827Z,11.72
2016-05-24T01:44:51.671Z,11.69
2016-05-24T01:45:01.983Z,11.72
2016-05-24T01:45:11.860Z,11.67
2016-05-24T01:45:21.860Z,11.7
2016-05-24T01:45:31.844Z,11.7
2016-05-24T01:45:41.844Z,11.72
2016-05-24T01:45:51.876Z,11.69
2016-05-24T01:46:01.860Z,11.69
2016-05-24T01:46:11.879Z,11.67
2016-05-24T01:46:21.879Z,11.72
2016-05-24T01:46:31.879Z,11.7
2016-05-24T01:46:41.722Z,11.67
2016-05-24T01:46:51.894Z,11.72
2016-05-24T01:47:01.738Z,11.7
2016-05-24T01:47:11.896Z,11.76
2016-05-24T01:47:21.896Z,11.7
2016-05-24T01:47:31.912Z,11.7
2016-05-24T01:47:41.912Z,11.7
2016-05-24T01:47:51.912Z,11.69
2016-05-24T01:48:01.928Z,11.69
2016-05-24T01:48:11.931Z,11.69
2016-05-24T01:48:21.931Z,11.73
2016-05-24T01:48:31.946Z,11.76
2016-05-24T01:48:41.946Z,11.72
2016-05-24T01:48:51.962Z,11.69
2016-05-24T01:49:01.962Z,11.69
2016-05-24T01:49:11.965Z,11.73
2016-05-24T01:49:21.965Z,11.72
2016-05-24T01:49:31.965Z,11.73
2016-05-24T01:49:41.965Z,11.75
2016-05-24T01:49:51.980Z,11.67
2016-05-24T01:50:01.996Z,11.7
2016-05-24T01:50:11.843Z,11.69
2016-05-24T01:50:21.983Z,11.73
2016-05-24T01:50:31.999Z,11.69
2016-05-24T01:50:41.999Z,11.7
2016-05-24T01:50:52.030Z,11.69
2016-05-24T01:51:02.015Z,11.65
2016-05-24T01:51:12.017Z,11.64
2016-05-24T01:51:22.017Z,11.69
2016-05-24T01:51:32.017Z,11.58
2016-05-24T01:51:42.032Z,11.67
2016-05-24T01:51:52.032Z,11.69
2016-05-24T01:52:02.032Z,11.75
2016-05-24T01:52:12.051Z,11.62
2016-05-24T01:52:21.895Z,11.7
2016-05-24T01:52:32.051Z,11.69
2016-05-24T01:52:42.051Z,11.65
2016-05-24T01:52:52.067Z,11.7
2016-05-24T01:53:02.067Z,11.69
2016-05-24T01:53:12.069Z,11.72
2016-05-24T01:53:22.084Z,11.72
2016-05-24T01:53:32.084Z,11.73
2016-05-24T01:53:42.084Z,11.67
2016-05-24T01:53:52.100Z,11.69
2016-05-24T01:54:02.100Z,11.7
2016-05-24T01:54:12.103Z,11.62
2016-05-24T01:54:22.118Z,11.65
2016-05-24T01:54:32.118Z,11.62
2016-05-24T01:54:42.118Z,11.7
2016-05-24T01:54:52.118Z,11.6
2016-05-24T01:55:02.134Z,11.64
2016-05-24T01:55:12.137Z,11.69
2016-05-24T01:55:22.137Z,11.65
2016-05-24T01:55:32.153Z,11.62
2016-05-24T01:55:42.153Z,11.65
2016-05-24T01:55:52.153Z,11.55
2016-05-24T01:56:02.153Z,11.69
2016-05-24T01:56:12.156Z,11.55
2016-05-24T01:56:22.171Z,11.64
2016-05-24T01:56:32.171Z,11.6
2016-05-24T01:56:42.171Z,11.69
2016-05-24T01:56:52.187Z,11.65
2016-05-24T01:57:02.187Z,11.57
2016-05-24T01:57:12.189Z,11.65
2016-05-24T01:57:22.205Z,11.65
2016-05-24T01:57:32.205Z,11.67
2016-05-24T01:57:42.064Z,11.72
2016-05-24T01:57:52.205Z,11.65
2016-05-24T01:58:02.220Z,11.67
2016-05-24T01:58:12.067Z,11.58
2016-05-24T01:58:22.223Z,11.67
2016-05-24T01:58:32.239Z,11.7
2016-05-24T01:58:42.239Z,11.75
2016-05-24T01:58:52.239Z,11.72
2016-05-24T01:59:02.254Z,11.76
2016-05-24T01:59:12.117Z,11.76
2016-05-24T01:59:22.257Z,11.64
2016-05-24T01:59:32.289Z,11.62
2016-05-24T01:59:42.742Z,11.72
2016-05-24T01:59:52.679Z,11.65
2016-05-24T02:00:02.289Z,11.64
2016-05-24T02:00:12.292Z,11.67
2016-05-24T02:00:22.292Z,11.69
2016-05-24T02:00:32.292Z,11.7
2016-05-24T02:00:42.292Z,11.69
2016-05-24T02:00:52.307Z,11.69
2016-05-24T02:01:02.307Z,11.76
2016-05-24T02:01:12.309Z,11.67
2016-05-24T02:01:22.325Z,11.65
2016-05-24T02:01:32.325Z,11.65
2016-05-24T02:01:42.341Z,11.57
2016-05-24T02:01:52.325Z,11.61
2016-05-24T02:02:02.341Z,11.47
2016-05-24T02:02:12.344Z,11.6
2016-05-24T02:02:22.344Z,11.49
2016-05-24T02:02:32.203Z,11.54
2016-05-24T02:02:42.359Z,11.58
2016-05-24T02:02:52.359Z,11.67
2016-05-24T02:03:02.375Z,11.54
2016-05-24T02:03:12.377Z,11.54
2016-05-24T02:03:22.377Z,11.51
2016-05-24T02:03:32.377Z,11.57
2016-05-24T02:03:42.392Z,11.55
2016-05-24T02:03:52.408Z,11.49
2016-05-24T02:04:02.392Z,11.58
2016-05-24T02:04:12.411Z,11.49
2016-05-24T02:04:22.411Z,11.52
2016-05-24T02:04:32.411Z,11.61
2016-05-24T02:04:42.427Z,11.51
2016-05-24T02:04:52.458Z,11.6
2016-05-24T02:05:02.427Z,11.52
2016-05-24T02:05:12.429Z,11.57
2016-05-24T02:05:22.444Z,11.52
2016-05-24T02:05:32.444Z,11.54
2016-05-24T02:05:42.288Z,11.54
2016-05-24T02:05:52.460Z,11.55
2016-05-24T02:06:02.460Z,11.52
2016-05-24T02:06:12.464Z,11.47
2016-05-24T02:06:22.464Z,11.51
2016-05-24T02:06:32.480Z,11.51
2016-05-24T02:06:42.480Z,11.57
2016-05-24T02:06:52.323Z,11.55
2016-05-24T02:07:02.480Z,11.51
2016-05-24T02:07:12.498Z,11.47
2016-05-24T02:07:22.498Z,11.55
2016-05-24T02:07:32.514Z,11.55
2016-05-24T02:07:42.358Z,11.44
2016-05-24T02:07:52.514Z,11.52
2016-05-24T02:08:02.373Z,11.4
2016-05-24T02:08:12.531Z,11.52
2016-05-24T02:08:22.531Z,11.52
2016-05-24T02:08:32.531Z,11.49
2016-05-24T02:08:42.391Z,11.51
2016-05-24T02:08:52.547Z,11.37
2016-05-24T02:09:02.547Z,11.55
2016-05-24T02:09:12.549Z,11.47
2016-05-24T02:09:22.549Z,11.46